Time;durP1;ratioP1;P1;durP2;ratioP2;P2;SDS_P1;SDS_P2;PMS_P1;PMS_P2;Temp;Humidity;BMP_temperature;BMP_pressure;BME280_temperature;BME280_humidity;BME280_pressure;Samples;Min_cycle;Max_cycle;Signal;HPM_P1;HPM_P2
2022/06/03 00:01:13;;;;;;;12.32;6.63;;;;;;;;;;10236676;28;20084;-62
2022/06/03 00:06:22;;;;;;;6.07;4.57;;;;;;;;;;10235586;28;20073;-62
2022/06/03 00:11:29;;;;;;;8.73;5.43;;;;;;;;;;10236333;28;20053;-62
2022/06/03 00:16:35;;;;;;;6.65;5.00;;;;;;;;;;10236618;28;20060;-62
2022/06/03 00:21:43;;;;;;;10.27;5.57;;;;;;;;;;10236629;28;20049;-63
2022/06/03 00:26:48;;;;;;;7.03;5.53;;;;;;;;;;10250876;28;20049;-62
2022/06/03 00:31:59;;;;;;;7.00;5.00;;;;;;;;;;10236640;28;20065;-62
2022/06/03 00:37:12;;;;;;;8.75;5.07;;;;;;;;;;10236001;28;20091;-62
2022/06/03 00:42:29;;;;;;;6.35;5.13;;;;;;;;;;10235859;28;20073;-62
2022/06/03 00:47:35;;;;;;;8.23;5.22;;;;;;;;;;10248379;28;20167;-62
2022/06/03 00:52:54;;;;;;;9.63;6.13;;;;;;;;;;10247535;28;20057;-62
2022/06/03 00:58:03;;;;;;;9.48;5.65;;;;;;;;;;10248004;28;20088;-62
2022/06/03 01:03:12;;;;;;;8.43;6.13;;;;;;;;;;10248105;28;20041;-62
2022/06/03 01:08:15;;;;;;;8.95;5.55;;;;;;;;;;10248027;28;20556;-62
2022/06/03 01:13:22;;;;;;;8.27;5.90;;;;;;;;;;10247795;28;20041;-62
2022/06/03 01:18:30;;;;;;;9.85;6.72;;;;;;;;;;10247144;28;20163;-62
2022/06/03 01:23:52;;;;;;;7.57;5.95;;;;;;;;;;10247900;28;20061;-62
2022/06/03 01:29:05;;;;;;;8.23;5.40;;;;;;;;;;10237711;28;20061;-63
2022/06/03 01:34:10;;;;;;;15.90;6.55;;;;;;;;;;10247903;28;20056;-62
2022/06/03 01:39:26;;;;;;;8.23;6.45;;;;;;;;;;10247675;28;20080;-62
2022/06/03 01:44:39;;;;;;;6.25;5.55;;;;;;;;;;10247511;28;20045;-62
2022/06/03 01:49:46;;;;;;;9.83;6.43;;;;;;;;;;10247563;28;20076;-62
2022/06/03 01:54:59;;;;;;;10.63;6.90;;;;;;;;;;10245225;28;20053;-62
2022/06/03 02:00:12;;;;;;;8.68;7.05;;;;;;;;;;10239785;28;20164;-61
2022/06/03 02:05:19;;;;;;;7.55;6.63;;;;;;;;;;10240859;28;20086;-62
2022/06/03 02:10:32;;;;;;;8.60;7.03;;;;;;;;;;10240821;28;20041;-62
2022/06/03 02:15:46;;;;;;;9.45;6.40;;;;;;;;;;10240606;28;20038;-62
2022/06/03 02:20:59;;;;;;;6.47;5.85;;;;;;;;;;10249332;28;20084;-62
2022/06/03 02:26:28;;;;;;;8.07;6.20;;;;;;;;;;10246422;28;20107;-62
2022/06/03 02:31:37;;;;;;;9.45;6.53;;;;;;;;;;10168048;28;20077;-62
2022/06/03 02:36:54;;;;;;;9.45;6.80;;;;;;;;;;10239953;28;20064;-62
2022/06/03 02:42:08;;;;;;;8.57;6.65;;;;;;;;;;10249492;28;20504;-62
2022/06/03 02:47:28;;;;;;;6.93;5.95;;;;;;;;;;10217070;28;20518;-62
2022/06/03 02:52:41;;;;;;;10.80;7.55;;;;;;;;;;10253096;28;20077;-62
2022/06/03 02:57:45;;;;;;;20.80;8.07;;;;;;;;;;10239024;28;20087;-62
2022/06/03 03:02:58;;;;;;;25.67;8.90;;;;;;;;;;10238107;28;20080;-62
2022/06/03 03:08:15;;;;;;;13.20;6.70;;;;;;;;;;10216186;28;20080;-62
2022/06/03 03:13:25;;;;;;;11.93;6.40;;;;;;;;;;10237796;28;20044;-62
2022/06/03 03:18:42;;;;;;;10.90;5.70;;;;;;;;;;10251048;28;20096;-62
2022/06/03 03:23:59;;;;;;;7.75;5.32;;;;;;;;;;10237726;28;20045;-62
2022/06/03 03:29:04;;;;;;;10.55;5.47;;;;;;;;;;10237447;28;20482;-62
2022/06/03 03:34:07;;;;;;;8.07;4.40;;;;;;;;;;10237236;28;20045;-62
2022/06/03 03:39:21;;;;;;;7.45;4.93;;;;;;;;;;10237300;28;20084;-62
2022/06/03 03:44:43;;;;;;;5.05;4.35;;;;;;;;;;10236986;28;20049;-62
2022/06/03 03:50:06;;;;;;;10.05;4.82;;;;;;;;;;10237207;28;20056;-61
2022/06/03 03:55:18;;;;;;;6.85;4.78;;;;;;;;;;10237147;28;20060;-61
2022/06/03 04:00:25;;;;;;;12.80;4.63;;;;;;;;;;10236459;28;20175;-61
2022/06/03 04:05:41;;;;;;;7.18;4.55;;;;;;;;;;10235839;28;20073;-61
2022/06/03 04:11:03;;;;;;;8.63;4.32;;;;;;;;;;10236449;28;20084;-60
2022/06/03 04:16:25;;;;;;;10.00;4.38;;;;;;;;;;10225825;28;20089;-61
2022/06/03 04:21:41;;;;;;;5.18;3.88;;;;;;;;;;10235735;28;20084;-61
2022/06/03 04:26:51;;;;;;;7.43;4.25;;;;;;;;;;10236720;28;20052;-61
2022/06/03 04:32:08;;;;;;;8.57;4.30;;;;;;;;;;10235800;28;20455;-61
2022/06/03 04:37:24;;;;;;;9.70;4.68;;;;;;;;;;10234478;28;20049;-61
2022/06/03 04:42:47;;;;;;;8.23;3.97;;;;;;;;;;10234726;28;20069;-61
2022/06/03 04:48:12;;;;;;;14.98;4.82;;;;;;;;;;10234719;28;20514;-61
2022/06/03 04:53:34;;;;;;;4.55;4.07;;;;;;;;;;10229879;28;20526;-62
2022/06/03 04:58:51;;;;;;;5.03;3.92;;;;;;;;;;10258581;28;20490;-61
2022/06/03 05:04:19;;;;;;;8.50;3.38;;;;;;;;;;10231644;28;20085;-62
2022/06/03 05:09:32;;;;;;;11.18;4.35;;;;;;;;;;10232682;28;20077;-61
2022/06/03 05:14:55;;;;;;;7.50;3.58;;;;;;;;;;10238155;28;20091;-62
2022/06/03 05:20:08;;;;;;;4.90;4.40;;;;;;;;;;10261887;28;20080;-62
2022/06/03 05:25:16;;;;;;;8.13;3.83;;;;;;;;;;10258421;28;20084;-61
2022/06/03 05:30:32;;;;;;;11.48;4.57;;;;;;;;;;10270342;28;20509;-60
2022/06/03 05:35:50;;;;;;;10.52;5.03;;;;;;;;;;10274529;28;20053;-61
2022/06/03 05:40:56;;;;;;;16.02;4.82;;;;;;;;;;10281319;28;20068;-61
2022/06/03 05:46:03;;;;;;;11.52;4.63;;;;;;;;;;10280488;28;20076;-61
2022/06/03 05:51:07;;;;;;;9.23;3.40;;;;;;;;;;10280745;28;20052;-60
2022/06/03 05:56:21;;;;;;;10.50;4.30;;;;;;;;;;10281156;28;20068;-61
2022/06/03 06:01:30;;;;;;;6.60;4.40;;;;;;;;;;10268253;28;20089;-61
2022/06/03 06:06:35;;;;;;;11.48;4.85;;;;;;;;;;10276884;28;20060;-61
2022/06/03 06:11:40;;;;;;;19.05;4.55;;;;;;;;;;10276244;28;20065;-62
2022/06/03 06:16:40;;;;;;;11.80;5.22;;;;;;;;;;10277420;28;20080;-61
2022/06/03 06:21:56;;;;;;;12.27;4.25;;;;;;;;;;10278055;28;20072;-61
2022/06/03 06:27:14;;;;;;;5.20;3.75;;;;;;;;;;10265363;28;20447;-61
2022/06/03 06:32:28;;;;;;;7.28;4.43;;;;;;;;;;10273279;28;20069;-62
2022/06/03 06:37:45;;;;;;;7.88;4.72;;;;;;;;;;10274484;28;20085;-61
2022/06/03 06:42:51;;;;;;;10.75;5.32;;;;;;;;;;10276931;28;20080;-61
2022/06/03 06:47:54;;;;;;;8.88;4.45;;;;;;;;;;10279331;28;20061;-62
2022/06/03 06:52:56;;;;;;;8.80;4.57;;;;;;;;;;10279597;28;20053;-62
2022/06/03 06:57:57;;;;;;;9.48;5.47;;;;;;;;;;10278996;28;20045;-61
2022/06/03 07:02:58;;;;;;;6.30;4.60;;;;;;;;;;10278715;28;20068;-61
2022/06/03 07:07:59;;;;;;;17.60;6.65;;;;;;;;;;10278659;28;20045;-62
2022/06/03 07:13:02;;;;;;;8.20;5.00;;;;;;;;;;10278438;28;20045;-61
2022/06/03 07:23:30;;;;;;;35.75;8.05;;;;;;;;;;10278182;28;20076;-62
2022/06/03 07:28:38;;;;;;;10.70;4.80;;;;;;;;;;10278031;28;20512;-62
2022/06/03 07:33:39;;;;;;;11.77;4.95;;;;;;;;;;10278320;28;20167;-61
2022/06/03 07:38:39;;;;;;;7.40;4.78;;;;;;;;;;10277717;28;20048;-61
2022/06/03 07:43:43;;;;;;;6.88;4.47;;;;;;;;;;10277354;28;20667;-61
2022/06/03 07:48:42;;;;;;;12.02;4.72;;;;;;;;;;10277481;28;20049;-62
2022/06/03 07:53:44;;;;;;;7.70;4.40;;;;;;;;;;10276552;28;20438;-62
2022/06/03 07:58:44;;;;;;;9.05;4.78;;;;;;;;;;10277087;28;20048;-61
2022/06/03 08:03:42;;;;;;;11.18;4.40;;;;;;;;;;10276623;28;20473;-61
2022/06/03 08:14:00;;;;;;;6.72;4.30;;;;;;;;;;10276644;28;20410;-61
2022/06/03 08:19:00;;;;;;;7.60;4.45;;;;;;;;;;10275298;28;20487;-62
2022/06/03 08:23:59;;;;;;;7.97;4.40;;;;;;;;;;10275993;28;20053;-62
2022/06/03 08:29:09;;;;;;;14.25;3.97;;;;;;;;;;10275823;28;20060;-62
2022/06/03 08:34:11;;;;;;;7.78;3.85;;;;;;;;;;10276129;28;20083;-61
2022/06/03 08:39:14;;;;;;;8.43;4.72;;;;;;;;;;10275703;28;20606;-62
2022/06/03 08:44:26;;;;;;;9.63;5.13;;;;;;;;;;10275521;28;20061;-62
2022/06/03 08:49:27;;;;;;;8.05;4.10;;;;;;;;;;10275856;28;20387;-61
2022/06/03 08:54:28;;;;;;;6.30;4.80;;;;;;;;;;10275755;28;20392;-61
2022/06/03 08:59:32;;;;;;;12.18;3.65;;;;;;;;;;10275505;28;20053;-62
2022/06/03 09:04:33;;;;;;;7.97;3.95;;;;;;;;;;10268045;28;20072;-63
2022/06/03 09:09:34;;;;;;;9.75;4.00;;;;;;;;;;10244159;28;20049;-62
2022/06/03 09:14:34;;;;;;;10.27;4.95;;;;;;;;;;10242688;28;20080;-62
2022/06/03 09:19:35;;;;;;;8.07;4.78;;;;;;;;;;10242310;28;20053;-62
2022/06/03 09:24:37;;;;;;;8.48;4.45;;;;;;;;;;10242147;28;20053;-62
2022/06/03 09:29:37;;;;;;;6.65;4.10;;;;;;;;;;10248009;28;20081;-62
2022/06/03 09:34:40;;;;;;;5.28;4.18;;;;;;;;;;10246568;28;20041;-62
2022/06/03 09:39:39;;;;;;;11.07;4.57;;;;;;;;;;10241833;28;20449;-61
2022/06/03 09:44:40;;;;;;;6.85;4.13;;;;;;;;;;10241301;28;20085;-61
2022/06/03 09:49:38;;;;;;;13.05;4.90;;;;;;;;;;10241416;28;20049;-61
2022/06/03 09:54:38;;;;;;;9.05;4.40;;;;;;;;;;10241128;28;20423;-61
2022/06/03 09:59:38;;;;;;;6.63;3.80;;;;;;;;;;10240707;28;20580;-62
2022/06/03 10:04:37;;;;;;;8.48;3.85;;;;;;;;;;10240385;28;20084;-64
2022/06/03 10:20:08;;;;;;;14.13;4.63;;;;;;;;;;10239708;28;20486;-61
2022/06/03 10:25:08;;;;;;;10.40;5.03;;;;;;;;;;10240198;28;20049;-62
2022/06/03 10:30:08;;;;;;;9.48;4.60;;;;;;;;;;10240356;28;20069;-61
2022/06/03 10:35:13;;;;;;;10.80;4.60;;;;;;;;;;10239855;28;20054;-62
2022/06/03 10:40:12;;;;;;;9.48;5.45;;;;;;;;;;10239583;28;20048;-63
2022/06/03 10:45:11;;;;;;;6.75;4.15;;;;;;;;;;10239516;28;20048;-61
2022/06/03 10:50:13;;;;;;;8.43;3.35;;;;;;;;;;10239462;28;20061;-63
2022/06/03 11:05:49;;;;;;;7.65;3.80;;;;;;;;;;10271802;28;20521;-63
2022/06/03 11:10:49;;;;;;;9.05;3.65;;;;;;;;;;10279188;28;20059;-63
2022/06/03 11:15:49;;;;;;;10.82;3.58;;;;;;;;;;10279259;28;20083;-63
2022/06/03 11:20:50;;;;;;;5.53;3.50;;;;;;;;;;10277936;28;20548;-63
2022/06/03 11:25:50;;;;;;;5.93;3.50;;;;;;;;;;10278652;28;20049;-63
2022/06/03 11:30:51;;;;;;;8.65;3.97;;;;;;;;;;10278696;28;20048;-62
2022/06/03 11:35:52;;;;;;;4.75;3.45;;;;;;;;;;10278655;28;20057;-63
2022/06/03 11:40:54;;;;;;;7.18;3.30;;;;;;;;;;10277993;28;20540;-62
2022/06/03 11:45:56;;;;;;;8.77;3.75;;;;;;;;;;10277914;28;20056;-64
2022/06/03 11:50:58;;;;;;;9.60;3.15;;;;;;;;;;10277677;28;20049;-63
2022/06/03 11:56:00;;;;;;;6.82;3.28;;;;;;;;;;10277417;28;20053;-61
2022/06/03 12:01:02;;;;;;;6.22;3.83;;;;;;;;;;10277370;28;20072;-61
2022/06/03 12:06:05;;;;;;;8.07;3.72;;;;;;;;;;10268864;28;20088;-61
2022/06/03 12:11:05;;;;;;;11.02;2.80;;;;;;;;;;10243932;28;20041;-61
2022/06/03 12:16:06;;;;;;;11.52;3.88;;;;;;;;;;10236689;28;20489;-62
2022/06/03 12:21:06;;;;;;;7.68;3.97;;;;;;;;;;10236034;28;20088;-61
2022/06/03 12:26:07;;;;;;;10.50;3.75;;;;;;;;;;10236213;28;20049;-61
2022/06/03 12:31:07;;;;;;;8.50;3.60;;;;;;;;;;10236269;28;20058;-61
2022/06/03 12:36:09;;;;;;;6.20;3.45;;;;;;;;;;10236095;28;20060;-61
2022/06/03 12:41:08;;;;;;;6.60;3.42;;;;;;;;;;10235332;28;20045;-62
2022/06/03 12:46:08;;;;;;;6.25;3.47;;;;;;;;;;10234845;28;20077;-61
2022/06/03 12:51:23;;;;;;;7.90;3.05;;;;;;;;;;10235446;28;20402;-61
2022/06/03 12:56:42;;;;;;;12.20;3.85;;;;;;;;;;10235466;28;20050;-62
2022/06/03 13:01:50;;;;;;;7.85;3.47;;;;;;;;;;10231527;28;20097;-61
2022/06/03 13:07:04;;;;;;;5.75;3.47;;;;;;;;;;10235586;28;20045;-61
2022/06/03 13:12:16;;;;;;;6.03;3.92;;;;;;;;;;10212035;28;20088;-63
2022/06/03 13:17:29;;;;;;;5.05;3.42;;;;;;;;;;10235446;28;20077;-62
2022/06/03 13:22:42;;;;;;;7.45;3.13;;;;;;;;;;10234138;28;20103;-62
2022/06/03 13:28:02;;;;;;;7.07;3.78;;;;;;;;;;10233920;28;20065;-62
2022/06/03 13:33:02;;;;;;;10.25;3.90;;;;;;;;;;10234262;28;20072;-62
2022/06/03 13:38:16;;;;;;;4.68;3.38;;;;;;;;;;10234355;28;20053;-62
2022/06/03 13:43:23;;;;;;;7.55;3.20;;;;;;;;;;10233833;28;20406;-63
2022/06/03 13:48:24;;;;;;;9.93;4.50;;;;;;;;;;10233989;28;20045;-63
2022/06/03 13:53:25;;;;;;;4.25;3.17;;;;;;;;;;10238330;28;20049;-63
2022/06/03 13:58:26;;;;;;;7.00;4.22;;;;;;;;;;10241214;28;20069;-63
2022/06/03 14:03:27;;;;;;;7.82;4.03;;;;;;;;;;10240894;28;20041;-62
2022/06/03 14:08:28;;;;;;;8.48;4.97;;;;;;;;;;10240675;28;20046;-63
2022/06/03 14:13:33;;;;;;;9.25;4.18;;;;;;;;;;10240464;28;20486;-63
2022/06/03 14:18:47;;;;;;;8.07;4.38;;;;;;;;;;10240025;28;20096;-63
2022/06/03 14:24:08;;;;;;;6.60;3.05;;;;;;;;;;10240400;28;20092;-63
2022/06/03 14:29:12;;;;;;;9.18;3.60;;;;;;;;;;10249228;28;20056;-62
2022/06/03 14:34:14;;;;;;;8.65;4.65;;;;;;;;;;10277362;28;20083;-63
2022/06/03 14:39:14;;;;;;;4.33;3.77;;;;;;;;;;10277798;28;20075;-63
2022/06/03 14:44:16;;;;;;;7.28;3.60;;;;;;;;;;10277807;28;20091;-63
2022/06/03 14:49:16;;;;;;;7.50;3.75;;;;;;;;;;10279409;28;20505;-63
2022/06/03 14:54:16;;;;;;;9.48;4.32;;;;;;;;;;10279915;28;20048;-63
2022/06/03 14:59:23;;;;;;;10.55;3.90;;;;;;;;;;10280025;28;20041;-63
2022/06/03 15:04:25;;;;;;;7.85;4.40;;;;;;;;;;10249353;28;20081;-63
2022/06/03 15:09:28;;;;;;;6.22;3.47;;;;;;;;;;10238887;28;20422;-63
2022/06/03 15:14:28;;;;;;;6.13;3.47;;;;;;;;;;10238650;28;20159;-63
2022/06/03 15:19:40;;;;;;;7.25;2.75;;;;;;;;;;10238467;28;20053;-63
2022/06/03 15:24:40;;;;;;;7.47;3.00;;;;;;;;;;10238049;28;20092;-63
2022/06/03 15:29:41;;;;;;;11.52;3.38;;;;;;;;;;10238044;28;20053;-63
2022/06/03 15:34:39;;;;;;;4.65;2.95;;;;;;;;;;10237598;28;20486;-63
2022/06/03 15:39:37;;;;;;;6.18;3.53;;;;;;;;;;10237372;28;20407;-63
2022/06/03 15:44:36;;;;;;;4.05;3.00;;;;;;;;;;10237724;28;20089;-63
2022/06/03 15:49:36;;;;;;;7.88;3.35;;;;;;;;;;10237313;28;20443;-63
2022/06/03 15:54:36;;;;;;;7.65;3.85;;;;;;;;;;10236692;28;20392;-64
2022/06/03 15:59:38;;;;;;;5.60;3.58;;;;;;;;;;10236198;28;20049;-62
2022/06/03 16:04:53;;;;;;;11.02;4.30;;;;;;;;;;10236495;28;20087;-63
2022/06/03 16:09:52;;;;;;;9.68;3.40;;;;;;;;;;10255330;28;20118;-64
2022/06/03 16:15:06;;;;;;;4.72;3.20;;;;;;;;;;10272331;28;20041;-64
2022/06/03 16:20:07;;;;;;;11.05;4.30;;;;;;;;;;10252394;28;20088;-63
2022/06/03 16:25:13;;;;;;;12.30;3.53;;;;;;;;;;10250321;28;20080;-63
2022/06/03 16:30:12;;;;;;;7.10;3.80;;;;;;;;;;10248719;28;20053;-63
2022/06/03 16:35:18;;;;;;;12.27;5.20;;;;;;;;;;10272893;28;20077;-63
2022/06/03 16:40:19;;;;;;;15.88;5.43;;;;;;;;;;10259335;28;20073;-64
2022/06/03 16:50:42;;;;;;;9.55;4.18;;;;;;;;;;10259087;28;20045;-63
2022/06/03 16:55:46;;;;;;;7.18;4.05;;;;;;;;;;10266163;28;20064;-62
2022/06/03 17:00:52;;;;;;;6.25;4.05;;;;;;;;;;10250043;28;20569;-63
2022/06/03 17:05:53;;;;;;;9.88;5.28;;;;;;;;;;10231311;28;20087;-63
2022/06/03 17:10:52;;;;;;;12.85;6.30;;;;;;;;;;10233478;28;20056;-63
2022/06/03 17:15:50;;;;;;;11.52;4.88;;;;;;;;;;10231586;28;20099;-63
2022/06/03 17:20:55;;;;;;;7.22;4.75;;;;;;;;;;10226002;28;20739;-63
2022/06/03 17:25:55;;;;;;;9.90;4.60;;;;;;;;;;10227605;28;20077;-63
2022/06/03 17:30:56;;;;;;;15.32;5.50;;;;;;;;;;10239892;28;20081;-64
2022/06/03 17:35:59;;;;;;;16.20;5.53;;;;;;;;;;10242569;28;20104;-64
2022/06/03 17:41:04;;;;;;;9.48;4.30;;;;;;;;;;10242261;28;20083;-63
2022/06/03 17:46:08;;;;;;;10.85;4.50;;;;;;;;;;10241309;28;20073;-63
2022/06/03 17:56:34;;;;;;;13.50;4.80;;;;;;;;;;10241566;28;20060;-63
2022/06/03 18:01:37;;;;;;;6.95;4.20;;;;;;;;;;10241542;28;20521;-63
2022/06/03 18:06:35;;;;;;;;;;;;;;;;;;10241289;28;20103;-64
2022/06/03 18:11:36;;;;;;;4.93;3.83;;;;;;;;;;10241546;28;19921;-63
2022/06/03 18:16:36;;;;;;;6.20;3.10;;;;;;;;;;10241236;28;20056;-63
2022/06/03 18:21:47;;;;;;;8.07;3.45;;;;;;;;;;10240906;28;20046;-64
2022/06/03 18:27:01;;;;;;;5.53;3.40;;;;;;;;;;10240719;28;20080;-63
2022/06/03 18:31:59;;;;;;;;;;;;;;;;;;10241479;28;20096;-63
2022/06/03 18:37:03;;;;;;;8.68;2.97;;;;;;;;;;10239900;28;20381;-63
2022/06/03 18:43:02;;;;;;;5.57;3.13;;;;;;;;;;10240443;28;20049;-63
2022/06/03 18:47:36;;;;;;;11.20;3.53;;;;;;;;;;10238873;28;20523;-64
2022/06/03 18:53:00;;;;;;;5.55;2.83;;;;;;;;;;10238917;28;20045;-63
2022/06/03 18:58:23;;;;;;;4.47;3.35;;;;;;;;;;10238774;28;20050;-63
2022/06/03 19:03:29;;;;;;;9.13;3.40;;;;;;;;;;10239147;28;20072;-63
2022/06/03 19:08:35;;;;;;;4.57;3.00;;;;;;;;;;10238584;28;20414;-63
2022/06/03 19:13:44;;;;;;;5.88;2.50;;;;;;;;;;10238183;28;20155;-63
2022/06/03 19:18:50;;;;;;;4.82;3.25;;;;;;;;;;10238171;28;20080;-63
2022/06/03 19:23:58;;;;;;;3.50;2.70;;;;;;;;;;10237820;28;20077;-62
2022/06/03 19:29:06;;;;;;;7.05;2.60;;;;;;;;;;10253286;28;20046;-63
2022/06/03 19:34:14;;;;;;;4.65;2.95;;;;;;;;;;10237558;28;20053;-63
2022/06/03 19:39:19;;;;;;;5.95;2.65;;;;;;;;;;10237388;28;20037;-63
2022/06/03 19:44:34;;;;;;;5.05;2.92;;;;;;;;;;10236560;28;20482;-63
2022/06/03 19:49:41;;;;;;;6.05;3.55;;;;;;;;;;10236080;28;20069;-63
2022/06/03 19:54:45;;;;;;;6.95;3.40;;;;;;;;;;10237002;28;20395;-63
2022/06/03 19:59:46;;;;;;;16.15;2.85;;;;;;;;;;10236280;28;20045;-63
2022/06/03 20:04:47;;;;;;;8.23;3.10;;;;;;;;;;10236416;28;20077;-63
2022/06/03 20:09:48;;;;;;;4.70;2.38;;;;;;;;;;10235774;28;20072;-59
2022/06/03 20:14:49;;;;;;;7.85;2.83;;;;;;;;;;10263356;28;20057;-62
2022/06/03 20:19:50;;;;;;;8.48;3.28;;;;;;;;;;10272359;28;20075;-62
2022/06/03 20:24:53;;;;;;;7.78;3.20;;;;;;;;;;10272731;28;20509;-60
2022/06/03 20:30:01;;;;;;;4.55;2.83;;;;;;;;;;10275055;28;20093;-60
2022/06/03 20:35:02;;;;;;;6.07;3.33;;;;;;;;;;10274304;28;20049;-60
2022/06/03 20:40:02;;;;;;;6.63;3.60;;;;;;;;;;10275194;28;20057;-62
2022/06/03 20:45:06;;;;;;;6.63;3.33;;;;;;;;;;10274125;28;20080;-61
2022/06/03 20:50:06;;;;;;;10.43;2.95;;;;;;;;;;10275746;28;20056;-61
2022/06/03 20:55:15;;;;;;;8.25;3.10;;;;;;;;;;10276187;28;20052;-61
2022/06/03 21:00:25;;;;;;;5.57;3.75;;;;;;;;;;10276857;28;20564;-64
2022/06/03 21:15:54;;;;;;;6.80;3.78;;;;;;;;;;10282976;28;20041;-61
2022/06/03 21:20:55;;;;;;;5.85;3.58;;;;;;;;;;10283551;28;20065;-61
2022/06/03 21:25:54;;;;;;;9.57;3.65;;;;;;;;;;10283026;28;20486;-62
2022/06/03 21:30:58;;;;;;;7.25;4.20;;;;;;;;;;10282893;28;20438;-62
2022/06/03 21:36:17;;;;;;;;;;;;;;;;;;10283388;28;20053;-61
2022/06/03 21:41:19;;;;;;;8.50;4.47;;;;;;;;;;10281959;28;19928;-62
2022/06/03 21:46:20;;;;;;;10.15;5.05;;;;;;;;;;10281809;28;20079;-63
2022/06/03 21:51:25;;;;;;;14.88;4.10;;;;;;;;;;10282532;28;20052;-62
2022/06/03 21:56:34;;;;;;;16.60;4.80;;;;;;;;;;10277203;28;20064;-62
2022/06/03 22:01:34;;;;;;;6.57;4.07;;;;;;;;;;10250753;28;20088;-62
2022/06/03 22:06:34;;;;;;;7.65;3.70;;;;;;;;;;10241416;28;20076;-62
2022/06/03 22:16:50;;;;;;;5.85;2.90;;;;;;;;;;10254786;28;20514;-62
2022/06/03 22:21:48;;;;;;;5.20;3.55;;;;;;;;;;10253505;28;20067;-62
2022/06/03 22:26:50;;;;;;;6.15;3.60;;;;;;;;;;10240545;28;20077;-63
2022/06/03 22:31:53;;;;;;;3.28;2.83;;;;;;;;;;10237850;28;20085;-62
2022/06/03 22:36:56;;;;;;;4.80;3.63;;;;;;;;;;10240493;28;20041;-62
2022/06/03 22:42:14;;;;;;;6.38;4.00;;;;;;;;;;10240204;28;20064;-62
2022/06/03 22:47:14;;;;;;;9.63;5.03;;;;;;;;;;10239974;28;20073;-61
2022/06/03 22:52:12;;;;;;;15.75;5.57;;;;;;;;;;10238133;28;20046;-63
2022/06/03 22:57:13;;;;;;;8.10;4.85;;;;;;;;;;10239632;28;20438;-61
2022/06/03 23:02:11;;;;;;;8.52;4.78;;;;;;;;;;10239293;28;20422;-62
2022/06/03 23:07:11;;;;;;;13.23;5.05;;;;;;;;;;10239210;28;20088;-63
2022/06/03 23:12:10;;;;;;;12.85;4.72;;;;;;;;;;10238013;28;20057;-62
2022/06/03 23:17:09;;;;;;;10.07;4.60;;;;;;;;;;10239105;28;20056;-62
2022/06/03 23:22:07;;;;;;;12.18;3.90;;;;;;;;;;10238913;28;20076;-61
2022/06/03 23:27:07;;;;;;;7.20;4.22;;;;;;;;;;10237104;28;20080;-61
2022/06/03 23:32:06;;;;;;;6.30;3.22;;;;;;;;;;10158491;28;20057;-62
2022/06/03 23:37:05;;;;;;;8.70;3.03;;;;;;;;;;10158576;28;20050;-62
2022/06/03 23:47:21;;;;;;;7.07;3.70;;;;;;;;;;10162970;28;20085;-61
2022/06/03 23:52:20;;;;;;;7.43;3.30;;;;;;;;;;10165714;28;20166;-61
2022/06/03 23:57:18;;;;;;;5.80;3.45;;;;;;;;;;10157597;28;20050;-61
